createdAt,value
2019-02-07T00:00:02.763Z,8.47
2019-02-07T00:01:08.364Z,4.97
2019-02-07T00:02:11.964Z,8.90
2019-02-07T00:03:15.721Z,6.40
2019-02-07T00:04:19.372Z,6.27
2019-02-07T00:05:22.926Z,7.60
2019-02-07T00:06:26.496Z,6.30
2019-02-07T00:07:30.111Z,11.83
2019-02-07T00:08:33.677Z,7.53
2019-02-07T00:09:37.235Z,7.73
2019-02-07T00:10:40.837Z,6.80
2019-02-07T00:11:44.454Z,6.00
2019-02-07T00:12:48.222Z,6.80
2019-02-07T00:13:52.137Z,6.67
2019-02-07T00:14:56.360Z,6.77
2019-02-07T00:16:00.017Z,6.90
2019-02-07T00:17:03.643Z,7.03
2019-02-07T00:18:07.473Z,10.70
2019-02-07T00:19:11.112Z,4.33
2019-02-07T00:20:19.807Z,7.57
2019-02-07T00:21:23.361Z,6.67
2019-02-07T00:22:26.876Z,4.63
2019-02-07T00:23:30.481Z,5.60
2019-02-07T00:24:42.517Z,5.47
2019-02-07T00:25:39.445Z,6.67
2019-02-07T00:26:43.087Z,9.53
2019-02-07T00:27:46.843Z,7.77
2019-02-07T00:28:50.427Z,7.80
2019-02-07T00:29:54.189Z,4.90
2019-02-07T00:30:57.796Z,6.23
2019-02-07T00:32:01.411Z,11.63
2019-02-07T00:33:05.220Z,7.30
2019-02-07T00:34:08.896Z,8.13
2019-02-07T00:35:12.684Z,5.67
2019-02-07T00:36:16.430Z,7.37
2019-02-07T00:37:19.955Z,5.93
2019-02-07T00:38:23.639Z,8.97
2019-02-07T00:39:27.233Z,5.40
2019-02-07T00:40:30.889Z,4.93
2019-02-07T00:41:34.543Z,5.57
2019-02-07T00:42:38.198Z,4.70
2019-02-07T00:43:42.138Z,6.00
2019-02-07T00:44:50.527Z,8.87
2019-02-07T00:45:51.688Z,4.27
2019-02-07T00:46:55.299Z,4.50
2019-02-07T00:47:58.974Z,8.40
2019-02-07T00:49:02.649Z,7.00
2019-02-07T00:50:09.082Z,11.53
2019-02-07T00:51:12.681Z,9.10
2019-02-07T00:52:16.313Z,5.37
2019-02-07T00:53:19.973Z,5.73
2019-02-07T00:54:23.640Z,4.13
2019-02-07T00:55:27.369Z,6.50
2019-02-07T00:56:31.037Z,4.80
2019-02-07T00:57:34.562Z,6.97
2019-02-07T00:58:38.182Z,6.40
2019-02-07T00:59:42.315Z,5.67
2019-02-07T01:00:45.868Z,4.03
2019-02-07T01:01:49.519Z,3.97
2019-02-07T01:02:53.273Z,5.63
2019-02-07T01:03:56.970Z,5.50
2019-02-07T01:05:00.597Z,5.80
2019-02-07T01:06:04.442Z,6.27
2019-02-07T01:07:08.335Z,3.93
2019-02-07T01:08:12.269Z,5.30
2019-02-07T01:09:15.872Z,5.40
2019-02-07T01:10:27.528Z,5.33
2019-02-07T01:11:31.185Z,6.30
2019-02-07T01:12:34.813Z,5.40
2019-02-07T01:13:38.471Z,4.40
2019-02-07T01:14:42.447Z,6.27
2019-02-07T01:15:46.398Z,6.00
2019-02-07T01:16:49.899Z,4.53
2019-02-07T01:17:53.725Z,5.17
2019-02-07T01:18:57.204Z,4.50
2019-02-07T01:20:00.992Z,5.90
2019-02-07T01:21:04.694Z,4.83
2019-02-07T01:22:08.410Z,4.57
2019-02-07T01:23:12.076Z,5.00
2019-02-07T01:24:15.780Z,4.27
2019-02-07T01:25:23.983Z,4.63
2019-02-07T01:26:27.613Z,4.50
2019-02-07T01:27:31.121Z,4.30
2019-02-07T01:28:34.785Z,3.47
2019-02-07T01:29:38.444Z,5.27
2019-02-07T01:30:42.464Z,4.00
2019-02-07T01:31:46.094Z,5.73
2019-02-07T01:32:49.724Z,3.27
2019-02-07T01:33:53.437Z,6.77
2019-02-07T01:34:57.063Z,3.83
2019-02-07T01:36:00.830Z,4.73
2019-02-07T01:37:04.537Z,4.90
2019-02-07T01:38:08.209Z,4.40
2019-02-07T01:39:11.774Z,6.23
2019-02-07T01:40:17.560Z,3.30
2019-02-07T01:41:21.215Z,7.40
2019-02-07T01:42:24.856Z,3.80
2019-02-07T01:43:28.425Z,6.10
2019-02-07T01:44:32.334Z,5.07
2019-02-07T01:45:35.939Z,4.13
2019-02-07T01:46:39.458Z,12.53
2019-02-07T01:47:43.137Z,4.23
2019-02-07T01:48:46.634Z,3.57
2019-02-07T01:49:50.270Z,6.23
2019-02-07T01:50:53.972Z,5.40
2019-02-07T01:51:57.605Z,7.43
2019-02-07T01:53:01.599Z,5.50
2019-02-07T01:54:05.433Z,8.03
2019-02-07T01:55:09.271Z,5.17
2019-02-07T01:56:12.862Z,3.10
2019-02-07T01:57:16.370Z,5.23
2019-02-07T01:58:20.236Z,5.90
2019-02-07T01:59:23.819Z,5.33
2019-02-07T02:00:27.861Z,2.90
2019-02-07T02:01:31.430Z,3.40
2019-02-07T02:02:34.944Z,13.20
2019-02-07T02:03:38.511Z,4.20
2019-02-07T02:04:42.104Z,4.37
2019-02-07T02:05:45.607Z,6.73
2019-02-07T02:06:49.241Z,4.20
2019-02-07T02:07:52.747Z,4.20
2019-02-07T02:08:56.379Z,4.00
2019-02-07T02:09:59.927Z,5.63
2019-02-07T02:11:05.048Z,6.00
2019-02-07T02:12:09.077Z,3.20
2019-02-07T02:13:12.959Z,3.23
2019-02-07T02:14:16.638Z,5.33
2019-02-07T02:15:25.277Z,7.90
2019-02-07T02:16:26.841Z,6.00
2019-02-07T02:17:30.409Z,4.70
2019-02-07T02:18:34.026Z,3.93
2019-02-07T02:19:37.736Z,6.40
2019-02-07T02:20:41.320Z,10.53
2019-02-07T02:21:44.986Z,3.43
2019-02-07T02:22:48.735Z,8.17
2019-02-07T02:23:52.373Z,4.77
2019-02-07T02:24:56.043Z,7.60
2019-02-07T02:25:59.689Z,2.63
2019-02-07T02:27:03.811Z,6.83
2019-02-07T02:28:07.952Z,4.73
2019-02-07T02:29:11.596Z,3.47
2019-02-07T02:30:23.701Z,3.43
2019-02-07T02:31:27.416Z,6.93
2019-02-07T02:32:31.088Z,2.80
2019-02-07T02:33:34.653Z,3.20
2019-02-07T02:34:38.228Z,3.47
2019-02-07T02:35:41.967Z,5.73
2019-02-07T02:36:45.608Z,4.70
2019-02-07T02:37:49.363Z,4.20
2019-02-07T02:38:53.047Z,3.33
2019-02-07T02:39:56.616Z,5.67
2019-02-07T02:41:00.304Z,3.10
2019-02-07T02:42:04.109Z,4.20
2019-02-07T02:43:07.954Z,3.57
2019-02-07T02:44:11.705Z,7.00
2019-02-07T02:45:20.363Z,5.10
2019-02-07T02:46:23.964Z,3.77
2019-02-07T02:47:27.514Z,3.20
2019-02-07T02:48:31.140Z,3.23
2019-02-07T02:49:34.803Z,4.00
2019-02-07T02:50:38.284Z,4.37
2019-02-07T02:51:42.043Z,3.40
2019-02-07T02:52:45.912Z,3.80
2019-02-07T02:53:50.932Z,3.30
2019-02-07T02:54:54.449Z,3.27
2019-02-07T02:55:58.381Z,3.90
2019-02-07T02:57:02.047Z,3.90
2019-02-07T02:58:06.544Z,4.67
2019-02-07T02:59:10.173Z,5.10
2019-02-07T03:00:18.846Z,3.30
2019-02-07T03:01:33.034Z,3.37
2019-02-07T03:02:44.435Z,4.40
2019-02-07T03:03:49.892Z,3.40
2019-02-07T03:05:00.865Z,3.70
2019-02-07T03:06:21.586Z,6.13
2019-02-07T03:07:42.909Z,4.10
2019-02-07T03:08:50.791Z,2.40
2019-02-07T03:10:12.216Z,3.30
2019-02-07T03:11:33.258Z,6.03
2019-02-07T03:12:54.570Z,4.87
2019-02-07T03:14:08.798Z,3.10
2019-02-07T03:15:23.209Z,3.10
2019-02-07T03:16:31.107Z,5.67
2019-02-07T03:17:42.426Z,7.13
2019-02-07T03:18:47.881Z,3.53
2019-02-07T03:19:53.373Z,2.43
2019-02-07T03:21:07.205Z,3.03
2019-02-07T03:22:29.065Z,4.77
2019-02-07T03:23:52.619Z,2.80
2019-02-07T03:25:03.675Z,4.83
2019-02-07T03:26:20.930Z,3.40
2019-02-07T03:27:35.181Z,5.70
2019-02-07T03:28:40.365Z,2.37
2019-02-07T03:29:48.316Z,3.23
2019-02-07T03:31:02.069Z,3.90
2019-02-07T03:32:23.448Z,8.53
2019-02-07T03:33:28.661Z,2.13
2019-02-07T03:34:36.931Z,6.23
2019-02-07T03:35:58.373Z,2.90
2019-02-07T03:37:06.268Z,2.20
2019-02-07T03:38:14.361Z,5.70
2019-02-07T03:39:19.576Z,2.77
2019-02-07T03:40:30.166Z,2.93
2019-02-07T03:41:35.361Z,2.63
2019-02-07T03:42:46.254Z,3.83
2019-02-07T03:43:51.431Z,3.70
2019-02-07T03:45:05.391Z,5.17
2019-02-07T03:46:10.701Z,4.90
2019-02-07T03:47:21.779Z,4.03
2019-02-07T03:48:44.624Z,2.10
2019-02-07T03:50:04.557Z,2.83
2019-02-07T03:51:12.514Z,3.93
2019-02-07T03:52:17.720Z,11.57
2019-02-07T03:53:25.728Z,4.97
2019-02-07T03:54:33.396Z,3.13
2019-02-07T03:55:54.843Z,2.80
2019-02-07T03:57:00.070Z,2.27
2019-02-07T03:58:07.971Z,2.60
2019-02-07T03:59:16.149Z,2.20
2019-02-07T04:00:23.810Z,2.83
2019-02-07T04:01:28.949Z,6.33
2019-02-07T04:02:34.520Z,3.17
2019-02-07T04:03:39.652Z,6.03
2019-02-07T04:05:02.777Z,2.23
2019-02-07T04:06:10.970Z,2.80
2019-02-07T04:07:18.835Z,2.60
2019-02-07T04:08:24.041Z,3.10
2019-02-07T04:09:45.421Z,3.20
2019-02-07T04:10:50.578Z,2.80
2019-02-07T04:12:11.413Z,5.67
2019-02-07T04:13:25.587Z,3.57
2019-02-07T04:14:45.991Z,3.10
2019-02-07T04:16:14.767Z,2.30
2019-02-07T04:17:14.204Z,3.10
2019-02-07T04:18:35.527Z,9.80
2019-02-07T04:19:40.809Z,4.07
2019-02-07T04:20:55.088Z,6.30
2019-02-07T04:22:18.218Z,2.97
2019-02-07T04:23:28.879Z,2.90
2019-02-07T04:24:36.617Z,4.47
2019-02-07T04:25:41.890Z,2.40
2019-02-07T04:27:03.139Z,4.37
2019-02-07T04:28:11.207Z,2.63
2019-02-07T04:29:28.470Z,3.07
2019-02-07T04:30:48.906Z,2.90
2019-02-07T04:32:10.101Z,2.17
2019-02-07T04:33:31.441Z,4.97
2019-02-07T04:34:42.428Z,3.73
2019-02-07T04:35:53.306Z,2.17
2019-02-07T04:37:01.480Z,3.73
2019-02-07T04:38:09.452Z,2.97
2019-02-07T04:39:30.755Z,3.53
2019-02-07T04:40:36.061Z,2.30
2019-02-07T04:41:44.291Z,2.63
2019-02-07T04:42:55.125Z,2.87
2019-02-07T04:44:02.677Z,2.90
2019-02-07T04:45:21.248Z,3.10
2019-02-07T04:46:35.144Z,2.57
2019-02-07T04:47:54.948Z,2.70
2019-02-07T04:49:09.393Z,4.73
2019-02-07T04:50:23.876Z,4.57
2019-02-07T04:51:45.076Z,4.70
2019-02-07T04:52:53.275Z,2.33
2019-02-07T04:54:07.333Z,2.30
2019-02-07T04:55:28.592Z,3.37
2019-02-07T04:56:42.800Z,6.03
2019-02-07T04:58:05.778Z,1.63
2019-02-07T04:59:13.570Z,3.97
2019-02-07T05:00:19.182Z,3.23
2019-02-07T05:01:39.006Z,8.17
2019-02-07T05:02:50.016Z,2.00
2019-02-07T05:04:04.071Z,2.57
2019-02-07T05:05:13.454Z,4.73
2019-02-07T05:06:24.215Z,4.47
2019-02-07T05:07:29.417Z,2.47
2019-02-07T05:08:34.558Z,4.27
2019-02-07T05:09:42.413Z,6.20
2019-02-07T05:11:03.489Z,2.50
2019-02-07T05:12:11.582Z,2.43
2019-02-07T05:13:22.776Z,3.83
2019-02-07T05:14:33.896Z,3.27
2019-02-07T05:15:55.360Z,2.10
2019-02-07T05:17:06.787Z,5.70
2019-02-07T05:18:27.886Z,2.40
2019-02-07T05:19:39.174Z,1.87
2019-02-07T05:20:53.221Z,2.70
2019-02-07T05:22:13.547Z,2.47
2019-02-07T05:23:18.784Z,2.47
2019-02-07T05:24:24.014Z,4.30
2019-02-07T05:25:45.320Z,2.40
2019-02-07T05:26:50.503Z,2.40
2019-02-07T05:28:01.325Z,2.90
2019-02-07T05:29:09.423Z,2.73
2019-02-07T05:30:22.102Z,3.27
2019-02-07T05:31:39.134Z,3.67
2019-02-07T05:32:46.994Z,5.33
2019-02-07T05:33:52.194Z,4.60
2019-02-07T05:34:59.845Z,13.90
2019-02-07T05:36:13.994Z,4.70
2019-02-07T05:37:30.953Z,4.87
2019-02-07T05:38:44.868Z,3.40
2019-02-07T05:39:58.841Z,3.30
2019-02-07T05:41:07.367Z,6.00
2019-02-07T05:42:12.853Z,5.40
2019-02-07T05:43:18.065Z,4.50
2019-02-07T05:44:23.269Z,6.17
2019-02-07T05:45:43.232Z,7.50
2019-02-07T05:46:54.527Z,7.30
2019-02-07T05:48:16.399Z,8.43
2019-02-07T05:49:27.166Z,8.27
2019-02-07T05:50:35.058Z,10.67
2019-02-07T05:51:40.260Z,9.00
2019-02-07T05:52:54.569Z,9.63
2019-02-07T05:54:05.693Z,11.57
2019-02-07T05:55:22.981Z,6.10
2019-02-07T05:56:28.146Z,7.57
2019-02-07T05:57:42.177Z,16.63
2019-02-07T05:58:53.131Z,14.07
2019-02-07T06:00:03.914Z,7.23
2019-02-07T06:01:12.012Z,6.97
2019-02-07T06:02:17.263Z,11.83
2019-02-07T06:03:34.290Z,6.27
2019-02-07T06:04:39.488Z,8.80
2019-02-07T06:06:00.369Z,10.67
2019-02-07T06:07:20.637Z,17.77
2019-02-07T06:08:28.645Z,9.80
2019-02-07T06:09:42.830Z,32.13
2019-02-07T06:10:48.030Z,25.13
2019-02-07T06:11:53.285Z,22.90
2019-02-07T06:13:07.110Z,26.30
2019-02-07T06:14:14.886Z,34.57
2019-02-07T06:15:20.032Z,28.83
2019-02-07T06:16:25.478Z,24.80
2019-02-07T06:17:39.747Z,18.40
2019-02-07T06:18:56.785Z,20.20
2019-02-07T06:20:01.995Z,23.33
2019-02-07T06:21:07.115Z,18.87
2019-02-07T06:22:15.174Z,20.70
2019-02-07T06:23:38.543Z,19.90
2019-02-07T06:24:59.867Z,20.10
2019-02-07T06:26:07.664Z,21.53
2019-02-07T06:27:24.701Z,27.77
2019-02-07T06:28:35.804Z,22.23
2019-02-07T06:29:41.070Z,24.47
2019-02-07T06:30:49.208Z,21.37
2019-02-07T06:32:00.454Z,28.90
2019-02-07T06:33:21.522Z,21.47
2019-02-07T06:34:41.387Z,23.93
2019-02-07T06:35:55.601Z,25.60
2019-02-07T06:37:00.756Z,27.60
2019-02-07T06:38:18.854Z,20.33
2019-02-07T06:39:24.155Z,33.77
2019-02-07T06:40:32.208Z,22.33
2019-02-07T06:41:37.442Z,17.47
2019-02-07T06:42:58.311Z,28.53
2019-02-07T06:44:03.542Z,18.60
2019-02-07T06:45:17.518Z,27.10
2019-02-07T06:46:38.388Z,22.00
2019-02-07T06:47:52.832Z,17.00
2019-02-07T06:49:15.937Z,20.70
2019-02-07T06:50:27.345Z,25.30
2019-02-07T06:51:35.427Z,24.27
2019-02-07T06:52:46.373Z,21.53
2019-02-07T06:53:51.614Z,15.63
2019-02-07T06:55:05.593Z,20.30
2019-02-07T06:56:22.570Z,17.93
2019-02-07T06:57:43.731Z,13.07
2019-02-07T06:59:00.778Z,19.50
2019-02-07T07:00:24.055Z,16.67
2019-02-07T07:01:45.365Z,16.13
2019-02-07T07:02:50.559Z,12.27
2019-02-07T07:04:11.702Z,18.83
2019-02-07T07:05:22.357Z,12.30
2019-02-07T07:06:43.821Z,9.00
2019-02-07T07:07:51.549Z,13.97
2019-02-07T07:09:12.876Z,10.97
2019-02-07T07:10:18.119Z,15.00
2019-02-07T07:11:39.540Z,10.33
2019-02-07T07:12:44.747Z,12.43
2019-02-07T07:13:55.860Z,10.33
2019-02-07T07:15:16.684Z,11.03
2019-02-07T07:16:38.478Z,14.20
2019-02-07T07:17:43.702Z,11.07
2019-02-07T07:19:05.177Z,10.37
2019-02-07T07:20:29.233Z,9.23
2019-02-07T07:21:34.426Z,7.97
2019-02-07T07:22:42.424Z,9.20
2019-02-07T07:23:50.419Z,9.90
2019-02-07T07:25:01.376Z,9.67
2019-02-07T07:26:16.104Z,11.40
2019-02-07T07:27:21.320Z,10.50
2019-02-07T07:28:41.523Z,8.00
2019-02-07T07:30:04.556Z,8.33
2019-02-07T07:31:09.928Z,8.60
2019-02-07T07:32:30.985Z,8.07
2019-02-07T07:33:52.293Z,8.80
2019-02-07T07:34:57.441Z,6.33
2019-02-07T07:36:11.456Z,7.87
2019-02-07T07:37:22.623Z,8.43
2019-02-07T07:38:30.730Z,8.13
2019-02-07T07:39:38.722Z,7.70
2019-02-07T07:40:44.029Z,7.20
2019-02-07T07:41:54.841Z,7.13
2019-02-07T07:43:09.027Z,7.67
2019-02-07T07:44:14.219Z,5.53
2019-02-07T07:45:19.632Z,7.00
2019-02-07T07:46:42.484Z,7.63
2019-02-07T07:47:59.715Z,9.03
2019-02-07T07:49:19.860Z,8.63
2019-02-07T07:50:28.076Z,6.53
2019-02-07T07:51:33.439Z,7.47
2019-02-07T07:52:50.381Z,11.57
2019-02-07T07:54:04.478Z,14.63
2019-02-07T07:55:10.158Z,5.93
2019-02-07T07:56:31.240Z,5.77
2019-02-07T07:57:39.188Z,8.53
2019-02-07T07:58:44.600Z,5.03
2019-02-07T08:00:01.680Z,5.80
2019-02-07T08:01:23.203Z,6.23
2019-02-07T08:02:28.414Z,5.43
2019-02-07T08:03:36.455Z,6.47
2019-02-07T08:04:56.770Z,6.70
2019-02-07T08:06:10.791Z,5.60
2019-02-07T08:07:16.003Z,6.50
2019-02-07T08:08:29.913Z,4.33
2019-02-07T08:09:47.096Z,8.90
2019-02-07T08:10:55.113Z,6.40
2019-02-07T08:12:14.932Z,6.27
2019-02-07T08:13:28.895Z,6.27
2019-02-07T08:14:34.170Z,5.37
2019-02-07T08:15:42.064Z,5.37
2019-02-07T08:16:50.101Z,7.07
2019-02-07T08:18:07.067Z,7.83
2019-02-07T08:19:12.452Z,5.30
2019-02-07T08:20:17.879Z,4.90
2019-02-07T08:21:25.988Z,6.20
2019-02-07T08:22:47.331Z,8.47
2019-02-07T08:23:55.175Z,4.90
2019-02-07T08:25:00.516Z,5.87
2019-02-07T08:26:14.975Z,7.30
2019-02-07T08:27:36.497Z,5.50
2019-02-07T08:28:41.766Z,4.23
2019-02-07T08:29:52.955Z,4.70
2019-02-07T08:31:00.540Z,4.87
2019-02-07T08:32:23.622Z,4.87
2019-02-07T08:33:39.293Z,4.90
2019-02-07T08:34:47.469Z,5.03
2019-02-07T08:36:01.433Z,5.13
2019-02-07T08:37:12.596Z,5.70
2019-02-07T08:38:32.653Z,6.00
2019-02-07T08:39:55.683Z,4.70
2019-02-07T08:41:06.781Z,4.83
2019-02-07T08:42:12.007Z,7.80
2019-02-07T08:43:19.804Z,4.47
2019-02-07T08:44:30.791Z,6.00
2019-02-07T08:45:51.169Z,5.13
2019-02-07T08:46:59.426Z,5.30
2019-02-07T08:48:05.097Z,4.00
2019-02-07T08:49:10.713Z,5.40
2019-02-07T08:50:33.922Z,4.03
2019-02-07T08:51:39.189Z,3.43
2019-02-07T08:53:00.878Z,6.70
2019-02-07T08:54:12.017Z,5.00
2019-02-07T08:55:21.928Z,3.57
2019-02-07T08:56:38.636Z,4.00
2019-02-07T08:57:52.474Z,4.03
2019-02-07T08:59:00.361Z,5.00
2019-02-07T09:00:07.116Z,4.73
2019-02-07T09:01:12.303Z,5.80
2019-02-07T09:02:17.532Z,5.13
2019-02-07T09:03:38.723Z,4.33
2019-02-07T09:04:43.838Z,4.17
2019-02-07T09:05:49.065Z,4.23
2019-02-07T09:07:00.114Z,2.70
2019-02-07T09:08:14.261Z,4.73
2019-02-07T09:09:22.450Z,3.73
2019-02-07T09:10:36.862Z,4.67
2019-02-07T09:11:54.129Z,3.57
2019-02-07T09:13:07.856Z,3.77
2019-02-07T09:14:24.785Z,3.43
2019-02-07T09:15:32.805Z,4.87
2019-02-07T09:16:40.962Z,3.30
2019-02-07T09:17:51.943Z,3.37
2019-02-07T09:18:57.187Z,3.97
2019-02-07T09:20:08.437Z,4.00
2019-02-07T09:21:25.590Z,4.63
2019-02-07T09:22:31.088Z,2.93
2019-02-07T09:23:51.501Z,3.23
2019-02-07T09:25:12.867Z,4.00
2019-02-07T09:26:33.982Z,4.70
2019-02-07T09:27:45.303Z,3.27
2019-02-07T09:29:06.339Z,4.93
2019-02-07T09:30:17.458Z,3.50
2019-02-07T09:31:25.705Z,4.03
2019-02-07T09:32:46.757Z,3.80
2019-02-07T09:33:51.957Z,3.30
2019-02-07T09:35:03.223Z,3.73
2019-02-07T09:36:14.220Z,4.00
2019-02-07T09:37:34.647Z,4.97
2019-02-07T09:38:45.698Z,4.90
2019-02-07T09:40:06.890Z,4.30
2019-02-07T09:41:12.160Z,3.03
2019-02-07T09:42:20.368Z,3.80
2019-02-07T09:43:28.134Z,4.03
2019-02-07T09:44:39.091Z,3.80
2019-02-07T09:46:00.443Z,4.53
2019-02-07T09:47:14.627Z,3.60
2019-02-07T09:48:28.496Z,4.60
2019-02-07T09:49:36.418Z,4.47
2019-02-07T09:50:47.265Z,3.50
2019-02-07T09:51:52.662Z,3.87
2019-02-07T09:53:09.643Z,3.77
2019-02-07T09:54:20.847Z,2.93
2019-02-07T09:55:28.984Z,3.80
2019-02-07T09:56:50.107Z,4.07
2019-02-07T09:57:55.413Z,3.67
2019-02-07T09:59:03.597Z,3.67
2019-02-07T10:00:14.620Z,4.50
2019-02-07T10:01:25.840Z,7.80
2019-02-07T10:02:48.943Z,4.33
2019-02-07T10:04:05.711Z,3.57
2019-02-07T10:05:21.420Z,2.63
2019-02-07T10:06:26.713Z,3.00
2019-02-07T10:07:40.618Z,3.13
2019-02-07T10:08:45.817Z,2.57
2019-02-07T10:09:57.141Z,4.07
2019-02-07T10:11:08.089Z,3.70
2019-02-07T10:12:28.116Z,2.80
2019-02-07T10:13:33.355Z,4.53
2019-02-07T10:14:41.573Z,2.80
2019-02-07T10:15:49.571Z,2.93
2019-02-07T10:16:57.522Z,3.27
2019-02-07T10:18:08.560Z,4.27
2019-02-07T10:19:13.786Z,4.17
2019-02-07T10:20:37.327Z,3.90
2019-02-07T10:21:45.082Z,5.30
2019-02-07T10:22:56.432Z,2.40
2019-02-07T10:24:10.683Z,2.63
2019-02-07T10:25:27.989Z,3.50
2019-02-07T10:26:36.064Z,2.60
2019-02-07T10:27:50.220Z,2.93
2019-02-07T10:29:00.976Z,4.33
2019-02-07T10:30:17.062Z,3.30
2019-02-07T10:31:38.486Z,5.37
2019-02-07T10:32:43.787Z,3.43
2019-02-07T10:33:49.087Z,4.93
2019-02-07T10:35:10.544Z,3.70
2019-02-07T10:36:21.277Z,3.53
2019-02-07T10:37:35.551Z,3.70
2019-02-07T10:38:40.719Z,3.60
2019-02-07T10:39:48.729Z,2.83
2019-02-07T10:40:59.969Z,3.20
2019-02-07T10:42:05.178Z,3.37
2019-02-07T10:43:26.495Z,2.90
2019-02-07T10:44:37.621Z,2.30
2019-02-07T10:45:45.541Z,2.87
2019-02-07T10:47:06.822Z,2.37
2019-02-07T10:48:12.091Z,2.67
2019-02-07T10:49:17.272Z,3.80
2019-02-07T10:50:38.218Z,3.60
2019-02-07T10:51:43.595Z,3.80
2019-02-07T10:53:04.885Z,2.67
2019-02-07T10:54:21.873Z,4.17
2019-02-07T10:55:27.382Z,4.07
2019-02-07T10:56:32.703Z,3.10
2019-02-07T10:57:37.943Z,4.03
2019-02-07T10:59:00.550Z,4.00
2019-02-07T11:00:09.013Z,2.97
2019-02-07T11:01:15.045Z,4.80
2019-02-07T11:02:23.822Z,3.30
2019-02-07T11:03:29.676Z,3.00
2019-02-07T11:04:50.754Z,3.83
2019-02-07T11:05:59.002Z,2.73
2019-02-07T11:07:07.109Z,3.00
2019-02-07T11:08:28.512Z,3.40
2019-02-07T11:09:49.718Z,2.90
2019-02-07T11:10:57.696Z,2.30
2019-02-07T11:12:19.224Z,4.03
2019-02-07T11:13:24.366Z,3.70
2019-02-07T11:14:45.803Z,2.30
2019-02-07T11:15:56.523Z,2.97
2019-02-07T11:17:10.784Z,2.90
2019-02-07T11:18:21.904Z,3.43
2019-02-07T11:19:33.173Z,2.60
2019-02-07T11:20:50.086Z,3.20
2019-02-07T11:22:11.830Z,2.00
2019-02-07T11:23:33.044Z,3.10
2019-02-07T11:24:49.782Z,2.70
2019-02-07T11:26:01.045Z,2.13
2019-02-07T11:27:22.281Z,2.07
2019-02-07T11:28:42.301Z,1.90
2019-02-07T11:29:56.267Z,2.50
2019-02-07T11:31:19.920Z,2.77
2019-02-07T11:32:30.546Z,3.00
2019-02-07T11:33:38.671Z,3.17
2019-02-07T11:35:01.657Z,3.07
2019-02-07T11:36:08.726Z,2.93
2019-02-07T11:37:30.228Z,3.37
2019-02-07T11:38:51.417Z,3.10
2019-02-07T11:40:08.432Z,3.50
2019-02-07T11:41:16.450Z,2.53
2019-02-07T11:42:24.042Z,2.30
2019-02-07T11:43:31.618Z,2.43
2019-02-07T11:44:39.651Z,2.60
2019-02-07T11:45:47.540Z,2.50
2019-02-07T11:47:05.195Z,3.10
2019-02-07T11:48:11.323Z,2.33
2019-02-07T11:49:28.478Z,2.43
2019-02-07T11:50:48.470Z,2.13
2019-02-07T11:52:05.910Z,2.77
2019-02-07T11:53:27.647Z,3.20
2019-02-07T11:54:32.845Z,3.50
2019-02-07T11:55:40.737Z,3.20
2019-02-07T11:57:02.173Z,2.90
2019-02-07T11:58:16.381Z,2.50
2019-02-07T11:59:24.525Z,2.43
2019-02-07T12:00:45.913Z,2.80
2019-02-07T12:01:51.108Z,2.00
2019-02-07T12:03:08.446Z,2.57
2019-02-07T12:04:19.911Z,3.23
2019-02-07T12:05:28.052Z,3.00
2019-02-07T12:06:39.487Z,2.87
2019-02-07T12:07:44.688Z,2.93
2019-02-07T12:08:50.287Z,2.60
2019-02-07T12:09:55.413Z,2.10
2019-02-07T12:11:00.547Z,2.30
2019-02-07T12:12:08.561Z,3.10
2019-02-07T12:13:16.670Z,2.70
2019-02-07T12:14:27.564Z,2.73
2019-02-07T12:15:39.988Z,2.30
2019-02-07T12:16:51.113Z,2.07
2019-02-07T12:18:08.420Z,2.13
2019-02-07T12:19:28.817Z,2.60
2019-02-07T12:20:33.980Z,2.50
2019-02-07T12:21:39.096Z,3.13
2019-02-07T12:22:44.589Z,2.03
2019-02-07T12:23:58.323Z,2.33
2019-02-07T12:25:19.128Z,2.60
2019-02-07T12:26:24.325Z,2.40
2019-02-07T12:27:37.160Z,3.10
2019-02-07T12:28:54.201Z,2.20
2019-02-07T12:29:59.408Z,2.57
2019-02-07T12:31:10.466Z,2.00
2019-02-07T12:32:15.666Z,2.30
2019-02-07T12:33:32.945Z,2.60
2019-02-07T12:34:38.169Z,3.30
2019-02-07T12:35:50.848Z,2.70
2019-02-07T12:36:56.123Z,3.00
2019-02-07T12:38:04.057Z,2.10
2019-02-07T12:39:10.651Z,1.90
2019-02-07T12:40:16.223Z,2.80
2019-02-07T12:41:21.517Z,2.20
2019-02-07T12:42:26.892Z,1.80
2019-02-07T12:43:47.955Z,1.80
2019-02-07T12:44:53.287Z,2.17
2019-02-07T12:46:14.474Z,2.00
2019-02-07T12:47:31.825Z,2.57
2019-02-07T12:48:36.956Z,2.40
2019-02-07T12:49:51.198Z,2.30
2019-02-07T12:51:11.350Z,2.53
2019-02-07T12:52:32.441Z,1.80
2019-02-07T12:53:43.722Z,5.23
2019-02-07T12:54:49.017Z,2.90
2019-02-07T12:55:57.244Z,3.30
2019-02-07T12:57:04.087Z,2.20
2019-02-07T12:58:12.323Z,2.37
2019-02-07T12:59:26.971Z,3.97
2019-02-07T13:00:38.166Z,2.57
2019-02-07T13:01:46.288Z,2.10
2019-02-07T13:02:57.186Z,3.23
2019-02-07T13:04:13.979Z,2.83
2019-02-07T13:05:21.997Z,2.90
2019-02-07T13:06:27.484Z,2.37
2019-02-07T13:07:35.624Z,2.23
2019-02-07T13:08:40.861Z,2.13
2019-02-07T13:10:00.728Z,4.63
2019-02-07T13:11:06.564Z,2.63
2019-02-07T13:12:17.952Z,2.63
2019-02-07T13:13:32.073Z,2.50
2019-02-07T13:14:37.327Z,2.20
2019-02-07T13:15:45.559Z,2.60
2019-02-07T13:16:53.408Z,2.70
2019-02-07T13:18:14.772Z,2.50
2019-02-07T13:19:20.173Z,3.63
2019-02-07T13:20:28.701Z,2.57
2019-02-07T13:21:33.963Z,2.00
2019-02-07T13:22:39.289Z,1.57
2019-02-07T13:23:59.608Z,1.90
2019-02-07T13:25:04.889Z,1.70
2019-02-07T13:26:22.268Z,2.53
2019-02-07T13:27:27.483Z,1.97
2019-02-07T13:28:35.421Z,1.93
2019-02-07T13:29:40.645Z,2.87
2019-02-07T13:30:57.912Z,1.90
2019-02-07T13:32:12.280Z,1.70
2019-02-07T13:33:17.466Z,1.87
2019-02-07T13:34:25.885Z,2.27
2019-02-07T13:35:34.065Z,1.93
2019-02-07T13:36:44.892Z,1.90
2019-02-07T13:37:59.345Z,3.20
2019-02-07T13:39:16.414Z,2.10
2019-02-07T13:40:21.713Z,1.70
2019-02-07T13:41:43.037Z,1.60
2019-02-07T13:42:51.360Z,3.10
2019-02-07T13:44:05.427Z,2.83
2019-02-07T13:45:21.783Z,2.50
2019-02-07T13:46:27.192Z,2.07
2019-02-07T13:47:35.225Z,1.80
2019-02-07T13:48:49.371Z,1.73
2019-02-07T13:50:09.127Z,1.50
2019-02-07T13:51:16.867Z,1.77
2019-02-07T13:52:22.167Z,2.20
2019-02-07T13:53:27.451Z,1.73
2019-02-07T13:54:36.090Z,2.17
2019-02-07T13:55:41.386Z,2.30
2019-02-07T13:56:52.009Z,2.33
2019-02-07T13:58:11.822Z,1.63
2019-02-07T13:59:37.285Z,1.93
2019-02-07T14:00:42.504Z,1.83
2019-02-07T14:01:50.315Z,2.27
2019-02-07T14:02:55.454Z,1.90
2019-02-07T14:04:18.526Z,2.00
2019-02-07T14:05:38.768Z,3.20
2019-02-07T14:07:00.166Z,2.37
2019-02-07T14:08:22.098Z,2.30
2019-02-07T14:09:27.309Z,2.00
2019-02-07T14:10:48.333Z,2.30
2019-02-07T14:11:59.181Z,1.87
2019-02-07T14:13:22.191Z,1.70
2019-02-07T14:14:36.203Z,2.13
2019-02-07T14:15:59.560Z,2.43
2019-02-07T14:17:10.537Z,2.27
2019-02-07T14:18:18.769Z,2.00
2019-02-07T14:19:39.113Z,1.60
2019-02-07T14:20:44.538Z,2.40
2019-02-07T14:21:55.488Z,1.83
2019-02-07T14:23:15.868Z,2.07
2019-02-07T14:24:23.922Z,1.87
2019-02-07T14:25:45.406Z,2.10
2019-02-07T14:27:08.628Z,1.57
2019-02-07T14:28:28.636Z,1.30
2019-02-07T14:29:49.015Z,1.93
2019-02-07T14:30:54.214Z,1.73
2019-02-07T14:32:05.072Z,1.90
2019-02-07T14:33:10.272Z,1.87
2019-02-07T14:34:31.613Z,2.00
2019-02-07T14:35:46.320Z,2.13
2019-02-07T14:36:56.967Z,5.60
2019-02-07T14:38:05.274Z,3.03
2019-02-07T14:39:13.612Z,7.07
2019-02-07T14:40:21.524Z,6.00
2019-02-07T14:41:32.574Z,5.77
2019-02-07T14:42:40.651Z,3.90
2019-02-07T14:43:51.966Z,4.27
2019-02-07T14:45:02.711Z,5.43
2019-02-07T14:46:08.081Z,4.43
2019-02-07T14:47:11.577Z,5.70
2019-02-07T14:48:24.685Z,9.60
2019-02-07T14:49:28.332Z,6.07
2019-02-07T14:50:32.307Z,5.13
2019-02-07T14:51:36.196Z,4.70
2019-02-07T14:52:39.819Z,5.00
2019-02-07T14:53:43.424Z,9.23
2019-02-07T14:54:46.974Z,7.10
2019-02-07T14:55:50.740Z,8.10
2019-02-07T14:56:54.270Z,5.27
2019-02-07T14:57:57.990Z,11.60
2019-02-07T14:59:04.568Z,31.27
2019-02-07T15:00:11.175Z,49.00
2019-02-07T15:01:14.871Z,28.13
2019-02-07T15:02:18.462Z,38.00
2019-02-07T15:03:22.020Z,33.43
2019-02-07T15:04:25.760Z,35.57
2019-02-07T15:05:31.526Z,34.30
2019-02-07T15:06:35.032Z,30.23
2019-02-07T15:07:38.675Z,40.00
2019-02-07T15:08:42.153Z,25.60
2019-02-07T15:09:45.789Z,30.43
2019-02-07T15:10:49.436Z,31.10
2019-02-07T15:11:53.069Z,32.23
2019-02-07T15:12:56.732Z,28.17
2019-02-07T15:14:00.484Z,23.20
2019-02-07T15:15:05.541Z,26.13
2019-02-07T15:16:09.479Z,30.60
2019-02-07T15:17:13.473Z,26.77
2019-02-07T15:18:17.042Z,27.77
2019-02-07T15:19:20.630Z,32.97
2019-02-07T15:20:26.410Z,33.27
2019-02-07T15:21:30.282Z,20.23
2019-02-07T15:22:33.847Z,29.20
2019-02-07T15:23:37.386Z,25.93
2019-02-07T15:24:40.866Z,21.77
2019-02-07T15:25:44.471Z,31.23
2019-02-07T15:26:48.051Z,27.70
2019-02-07T15:27:51.617Z,24.93